Time;durP1;ratioP1;P1;durP2;ratioP2;P2;SDS_P1;SDS_P2;PMS_P1;PMS_P2;Temp;Humidity;BMP_temperature;BMP_pressure;BME280_temperature;BME280_humidity;BME280_pressure;Samples;Min_cycle;Max_cycle;Signal;HPM_P1;HPM_P2
2022/06/21 00:00:44;;;;;;;6.50;6.00;;;16.90;95.90;;;;;;5115893;28;20410;-69
2022/06/21 00:03:17;;;;;;;6.90;6.07;;;16.80;96.60;;;;;;5115173;28;20411;-70
2022/06/21 00:05:45;;;;;;;6.90;5.70;;;16.70;96.50;;;;;;5116188;27;20763;-69
2022/06/21 00:08:18;;;;;;;7.37;6.67;;;16.70;96.40;;;;;;5115400;27;20416;-69
2022/06/21 00:10:44;;;;;;;6.97;6.07;;;16.70;96.50;;;;;;5116440;27;20952;-69
2022/06/21 00:13:17;;;;;;;6.33;5.93;;;16.60;96.50;;;;;;5134019;27;20547;-69
2022/06/21 00:15:45;;;;;;;6.63;6.03;;;16.60;96.70;;;;;;5136068;27;20487;-69
2022/06/21 00:18:16;;;;;;;6.73;6.13;;;16.60;97.10;;;;;;5134953;27;20458;-69
2022/06/21 00:20:43;;;;;;;7.30;6.60;;;16.60;97.30;;;;;;5135442;27;20555;-69
2022/06/21 00:23:27;;;;;;;6.80;6.37;;;16.60;97.80;;;;;;5135086;27;20461;-69
2022/06/21 00:25:54;;;;;;;7.13;6.43;;;16.60;97.20;;;;;;5135948;27;20486;-69
2022/06/21 00:28:21;;;;;;;6.73;6.23;;;16.60;98.20;;;;;;5119565;27;20420;-69
2022/06/21 00:30:48;;;;;;;6.93;6.33;;;16.60;99.00;;;;;;5115159;28;20406;-69
2022/06/21 00:33:16;;;;;;;5.57;5.17;;;16.60;98.20;;;;;;5113005;28;20465;-69
2022/06/21 00:35:44;;;;;;;6.53;6.00;;;16.60;97.90;;;;;;5113771;28;20542;-69
2022/06/21 00:38:16;;;;;;;6.33;5.70;;;16.50;97.40;;;;;;5114245;28;20512;-69
2022/06/21 00:40:43;;;;;;;6.83;6.30;;;16.50;97.50;;;;;;5115066;28;20401;-69
2022/06/21 00:43:26;;;;;;;6.47;6.03;;;16.50;97.60;;;;;;5114106;28;20416;-70
2022/06/21 00:45:52;;;;;;;7.37;6.70;;;16.50;97.20;;;;;;5115005;28;20401;-69
2022/06/21 00:48:41;;;;;;;6.87;6.37;;;16.30;97.30;;;;;;5119571;27;20760;-69
2022/06/21 00:51:14;;;;;;;6.63;6.23;;;15.90;98.20;;;;;;5134649;27;20735;-72
2022/06/21 00:53:49;;;;;;;6.23;5.73;;;15.70;99.00;;;;;;5135374;27;20447;-69
2022/06/21 00:57:02;;;;;;;6.90;6.30;;;15.60;99.30;;;;;;5133373;27;20442;-69
2022/06/21 00:59:31;;;;;;;7.23;6.40;;;15.70;99.70;;;;;;5109880;27;20822;-68
2022/06/21 01:02:04;;;;;;;6.93;6.33;;;15.80;99.50;;;;;;5133835;27;20430;-69
2022/06/21 01:04:38;;;;;;;7.33;6.80;;;15.90;99.20;;;;;;5119494;27;20433;-69
2022/06/21 01:07:08;;;;;;;7.40;6.80;;;15.90;99.20;;;;;;5113012;28;20463;-73
2022/06/21 01:09:40;;;;;;;9.20;6.10;;;16.00;99.00;;;;;;5094258;28;20410;-69
2022/06/21 01:12:23;;;;;;;7.23;6.73;;;16.00;98.90;;;;;;5105987;28;20558;-72
2022/06/21 01:15:18;;;;;;;7.00;6.30;;;16.00;99.00;;;;;;5114368;28;20416;-69
2022/06/21 01:17:46;;;;;;;6.43;5.93;;;16.00;98.60;;;;;;5112023;28;20439;-69
2022/06/21 01:20:17;;;;;;;6.90;6.40;;;16.00;98.40;;;;;;5095451;28;20510;-69
2022/06/21 01:23:02;;;;;;;6.93;6.43;;;16.10;98.30;;;;;;5114210;28;20417;-69
2022/06/21 01:25:55;;;;;;;6.30;6.00;;;16.10;98.40;;;;;;5112046;27;20436;-69
2022/06/21 01:28:21;;;;;;;7.00;6.40;;;16.10;99.50;;;;;;5113382;28;20405;-69
2022/06/21 01:30:52;;;;;;;6.60;6.20;;;16.10;99.50;;;;;;5113977;28;20408;-69
2022/06/21 01:33:30;;;;;;;6.47;6.07;;;16.10;98.70;;;;;;5119790;27;20439;-69
2022/06/21 01:35:59;;;;;;;6.53;5.93;;;16.10;98.40;;;;;;5113959;28;20451;-69
2022/06/21 01:38:41;;;;;;;7.80;6.70;;;16.10;98.20;;;;;;5113043;28;20416;-69
2022/06/21 01:41:10;;;;;;;6.63;6.23;;;16.10;98.10;;;;;;5113344;28;20405;-73
2022/06/21 01:43:40;;;;;;;7.03;6.40;;;16.10;98.30;;;;;;5113071;28;20424;-69
2022/06/21 01:46:10;;;;;;;7.63;7.13;;;16.10;98.20;;;;;;5113643;28;20881;-72
2022/06/21 01:48:40;;;;;;;8.77;8.07;;;16.00;97.90;;;;;;5114830;27;20461;-69
2022/06/21 01:51:13;;;;;;;7.93;7.33;;;15.80;98.00;;;;;;5134053;27;20457;-69
2022/06/21 01:53:39;;;;;;;8.27;7.57;;;15.80;98.60;;;;;;5134169;27;20387;-69
2022/06/21 01:56:11;;;;;;;8.00;7.37;;;15.80;98.90;;;;;;5134307;27;20418;-69
2022/06/21 01:58:45;;;;;;;10.93;8.20;;;15.80;98.90;;;;;;5080835;27;20492;-69
2022/06/21 02:01:22;;;;;;;9.10;8.33;;;15.70;98.70;;;;;;5133204;27;20395;-72
2022/06/21 02:03:52;;;;;;;9.90;8.93;;;15.60;99.40;;;;;;5124750;27;20948;-69
2022/06/21 02:06:20;;;;;;;9.17;8.13;;;15.70;99.90;;;;;;5112569;28;20406;-69
2022/06/21 02:08:52;;;;;;;8.10;7.50;;;15.70;99.70;;;;;;5118760;27;20417;-69
2022/06/21 02:11:26;;;;;;;8.40;7.80;;;15.70;99.00;;;;;;5132955;27;20447;-69
2022/06/21 02:16:45;;;;;;;8.60;7.53;;;15.50;99.20;;;;;;5132312;27;20445;-69
2022/06/21 02:19:25;;;;;;;8.37;7.67;;;15.40;99.10;;;;;;5133084;27;20521;-72
2022/06/21 02:21:51;;;;;;;8.23;7.47;;;15.30;99.10;;;;;;5131648;27;20546;-68
2022/06/21 02:24:17;;;;;;;7.93;7.30;;;15.20;99.10;;;;;;5131614;27;20530;-69
2022/06/21 02:26:44;;;;;;;7.73;7.00;;;15.10;99.60;;;;;;5133829;27;20221;-69
2022/06/21 02:29:13;;;;;;;7.50;7.00;;;15.00;99.80;;;;;;5133259;27;20503;-72
2022/06/21 02:31:39;;;;;;;7.50;6.80;;;14.90;99.90;;;;;;5131929;27;20474;-68
2022/06/21 02:34:11;;;;;;;7.07;6.50;;;14.80;99.90;;;;;;5127874;27;20521;-69
2022/06/21 02:36:50;;;;;;;7.77;7.13;;;14.60;99.90;;;;;;5115182;28;20523;-69
2022/06/21 02:39:20;;;;;;;7.73;7.13;;;14.50;99.90;;;;;;5120122;27;20420;-69
2022/06/21 02:41:55;;;;;;;7.30;6.77;;;14.60;99.90;;;;;;5128946;27;20430;-68
2022/06/21 02:44:28;;;;;;;6.87;6.37;;;14.60;99.90;;;;;;5132587;27;20432;-69
2022/06/21 02:46:58;;;;;;;7.73;6.90;;;14.60;99.90;;;;;;5133449;27;20775;-69
2022/06/21 02:49:36;;;;;;;7.20;6.60;;;14.60;99.90;;;;;;5132161;27;20419;-69
2022/06/21 02:52:10;;;;;;;7.07;6.63;;;14.70;99.90;;;;;;5133234;27;20448;-69
2022/06/21 02:54:45;;;;;;;7.50;6.90;;;14.80;99.90;;;;;;5131739;28;20864;-69
2022/06/21 02:57:22;;;;;;;7.27;6.67;;;14.80;99.90;;;;;;5133049;28;20432;-72
2022/06/21 02:59:51;;;;;;;7.00;6.40;;;14.90;99.90;;;;;;5133188;28;20405;-69
2022/06/21 03:02:22;;;;;;;7.57;6.87;;;14.90;99.90;;;;;;5127838;28;20431;-72
2022/06/21 03:04:52;;;;;;;7.43;6.87;;;14.80;99.90;;;;;;5111360;28;20429;-68
2022/06/21 03:07:25;;;;;;;8.57;7.77;;;14.60;99.90;;;;;;5110521;28;20454;-70
2022/06/21 03:09:53;;;;;;;7.43;6.93;;;14.60;99.90;;;;;;5112537;28;20910;-70
2022/06/21 03:12:25;;;;;;;8.53;7.70;;;14.70;99.90;;;;;;5111724;28;20481;-70
2022/06/21 03:14:55;;;;;;;8.17;7.33;;;14.70;99.90;;;;;;5112490;28;20548;-68
2022/06/21 03:17:29;;;;;;;10.83;9.73;;;14.80;99.90;;;;;;5110387;28;20558;-70
2022/06/21 03:19:54;;;;;;;8.00;7.30;;;14.90;99.90;;;;;;5111091;28;20462;-70
2022/06/21 03:22:31;;;;;;;9.03;8.27;;;15.00;99.90;;;;;;5130992;28;20408;-70
2022/06/21 03:24:59;;;;;;;8.33;7.73;;;15.00;99.90;;;;;;5130371;28;20550;-69
2022/06/21 03:27:47;;;;;;;8.70;7.90;;;15.10;99.90;;;;;;5132047;28;20406;-69
2022/06/21 03:30:14;;;;;;;8.43;7.73;;;15.10;99.90;;;;;;5133981;27;20428;-73
2022/06/21 03:32:40;;;;;;;8.23;7.53;;;15.10;99.90;;;;;;5132979;27;20489;-70
2022/06/21 03:35:07;;;;;;;8.33;7.53;;;15.20;99.90;;;;;;5115322;28;20426;-67
2022/06/21 03:37:38;;;;;;;8.23;7.53;;;15.20;99.90;;;;;;5114501;28;20823;-68
2022/06/21 03:42:52;;;;;;;9.57;8.67;;;15.20;99.90;;;;;;5114606;27;20430;-68
2022/06/21 03:45:24;;;;;;;8.87;8.17;;;15.20;99.50;;;;;;5115334;28;20444;-69
2022/06/21 03:48:03;;;;;;;8.00;7.20;;;15.20;99.90;;;;;;5116026;28;20411;-68
2022/06/21 03:50:43;;;;;;;11.40;10.60;;;15.20;99.90;;;;;;5115297;28;20397;-69
2022/06/21 03:53:19;;;;;;;9.30;8.50;;;15.10;99.50;;;;;;5115999;28;20454;-68
2022/06/21 03:55:47;;;;;;;9.60;8.80;;;14.90;99.90;;;;;;5115933;28;20753;-68
2022/06/21 03:58:21;;;;;;;8.10;7.50;;;14.60;99.90;;;;;;5115966;27;20480;-68
2022/06/21 04:01:01;;;;;;;8.17;7.50;;;14.60;99.90;;;;;;5119177;27;20790;-68
2022/06/21 04:03:52;;;;;;;14.70;10.27;;;14.50;99.90;;;;;;5126644;27;20493;-68
2022/06/21 04:06:33;;;;;;;8.27;7.47;;;14.40;99.90;;;;;;5113729;28;20397;-71
2022/06/21 04:09:07;;;;;;;13.17;11.77;;;14.30;99.90;;;;;;5134117;27;20446;-68
2022/06/21 04:12:08;;;;;;;10.97;9.93;;;14.30;99.90;;;;;;5135342;27;20826;-68
2022/06/21 04:14:41;;;;;;;11.33;9.93;;;14.10;99.90;;;;;;5130468;27;20487;-68
2022/06/21 04:17:30;;;;;;;11.00;9.97;;;14.20;99.90;;;;;;5136458;27;20866;-68
2022/06/21 04:20:04;;;;;;;10.83;9.93;;;14.20;99.90;;;;;;5120414;27;21034;-68
2022/06/21 04:22:33;;;;;;;10.03;9.13;;;14.20;99.90;;;;;;5114288;28;20988;-68
2022/06/21 04:25:16;;;;;;;9.63;8.93;;;14.30;99.90;;;;;;5115297;28;20428;-68
2022/06/21 04:27:55;;;;;;;9.73;8.73;;;14.40;99.90;;;;;;5113693;28;20436;-68
2022/06/21 04:30:26;;;;;;;10.20;9.10;;;14.60;99.90;;;;;;5114489;28;20398;-69
2022/06/21 04:33:02;;;;;;;11.30;10.40;;;14.70;99.90;;;;;;5113966;28;20540;-68
2022/06/21 04:35:34;;;;;;;8.23;7.53;;;14.80;99.90;;;;;;5114338;27;20411;-69
2022/06/21 04:38:24;;;;;;;7.63;7.03;;;14.90;99.90;;;;;;5124701;27;20429;-68
2022/06/21 04:40:58;;;;;;;9.63;7.93;;;15.00;99.90;;;;;;5134611;27;20488;-68
2022/06/21 04:43:36;;;;;;;8.40;7.60;;;15.10;99.90;;;;;;5134753;27;20405;-69
2022/06/21 04:46:15;;;;;;;9.80;8.90;;;15.20;99.90;;;;;;5131834;27;20444;-69
2022/06/21 04:49:02;;;;;;;9.13;8.23;;;15.30;99.90;;;;;;5118413;27;21280;-69
2022/06/21 04:51:39;;;;;;;13.23;8.77;;;15.40;99.90;;;;;;5113797;28;20465;-69
2022/06/21 04:54:10;;;;;;;9.90;9.07;;;15.40;99.90;;;;;;5113699;28;20411;-69
2022/06/21 04:57:18;;;;;;;9.73;8.73;;;15.50;99.90;;;;;;5116244;27;20461;-68
2022/06/21 04:59:50;;;;;;;11.50;10.53;;;15.60;99.90;;;;;;5103117;28;20424;-69
2022/06/21 05:02:22;;;;;;;11.00;9.97;;;15.70;99.90;;;;;;5129328;27;20843;-69
2022/06/21 05:04:56;;;;;;;13.07;11.87;;;15.70;99.90;;;;;;5116435;27;20436;-69
2022/06/21 05:07:26;;;;;;;10.10;9.20;;;15.70;99.90;;;;;;5112474;27;20505;-72
2022/06/21 05:09:55;;;;;;;10.93;9.83;;;15.80;99.90;;;;;;5117703;27;20523;-69
2022/06/21 05:12:27;;;;;;;9.00;8.20;;;15.90;99.90;;;;;;5113556;27;20520;-72
2022/06/21 05:15:01;;;;;;;9.83;9.20;;;15.90;99.90;;;;;;5113788;27;21113;-69
2022/06/21 05:17:27;;;;;;;8.37;7.77;;;15.90;99.90;;;;;;5113316;27;20408;-69
2022/06/21 05:20:00;;;;;;;8.77;8.17;;;15.80;99.90;;;;;;5114078;28;20521;-69
2022/06/21 05:22:30;;;;;;;13.63;8.23;;;15.90;99.90;;;;;;5113109;28;20424;-69
2022/06/21 05:24:58;;;;;;;11.30;10.30;;;15.80;99.90;;;;;;5113952;28;20429;-69
2022/06/21 05:27:38;;;;;;;9.30;7.90;;;15.70;99.70;;;;;;5111944;28;20944;-69
2022/06/21 05:30:08;;;;;;;13.47;12.10;;;15.50;99.90;;;;;;5117416;27;20518;-69
2022/06/21 05:32:40;;;;;;;8.87;8.17;;;15.50;99.90;;;;;;5111122;27;22306;-69
2022/06/21 05:35:16;;;;;;;8.37;7.60;;;15.60;99.90;;;;;;5116099;27;21455;-69
2022/06/21 05:37:52;;;;;;;11.30;10.30;;;15.70;99.90;;;;;;5113183;27;20548;-69
2022/06/21 05:40:37;;;;;;;10.87;10.07;;;15.90;99.90;;;;;;5115770;27;20435;-69
2022/06/21 05:43:03;;;;;;;14.73;9.07;;;15.90;99.90;;;;;;5113508;28;20527;-69
2022/06/21 05:45:34;;;;;;;10.43;9.50;;;15.80;99.90;;;;;;5118395;27;20502;-72
2022/06/21 05:48:13;;;;;;;10.83;9.73;;;15.80;99.90;;;;;;5119997;27;20191;-68
2022/06/21 05:50:38;;;;;;;10.67;9.57;;;15.90;99.90;;;;;;5114915;27;20514;-68
2022/06/21 05:53:21;;;;;;;10.07;9.07;;;15.90;99.90;;;;;;5113225;28;20546;-68
2022/06/21 05:55:48;;;;;;;9.10;8.20;;;15.80;99.90;;;;;;5130949;27;20192;-69
2022/06/21 05:58:19;;;;;;;10.10;9.40;;;15.70;99.90;;;;;;5120937;27;20431;-69
2022/06/21 06:00:59;;;;;;;8.67;7.90;;;15.70;99.90;;;;;;5112350;27;20435;-69
2022/06/21 06:03:37;;;;;;;8.57;7.83;;;15.70;99.90;;;;;;5110755;28;20432;-71
2022/06/21 06:06:05;;;;;;;8.90;8.00;;;15.70;99.90;;;;;;5109526;28;20435;-71
2022/06/21 06:08:38;;;;;;;9.33;8.10;;;15.70;99.90;;;;;;5110868;28;20432;-70
2022/06/21 06:11:10;;;;;;;9.00;8.10;;;15.70;99.90;;;;;;5100251;28;20432;-69
2022/06/21 06:13:40;;;;;;;9.83;8.30;;;15.80;99.90;;;;;;5093476;28;20442;-69
2022/06/21 06:16:25;;;;;;;8.30;7.50;;;15.70;99.90;;;;;;5109500;27;20935;-69
2022/06/21 06:19:16;;;;;;;11.63;7.50;;;15.70;99.90;;;;;;5133428;27;20411;-69
2022/06/21 06:22:09;;;;;;;9.50;8.80;;;15.80;99.90;;;;;;5107840;27;20475;-69
2022/06/21 06:24:49;;;;;;;7.63;6.77;;;15.90;99.90;;;;;;5110591;28;20433;-69
2022/06/21 06:27:48;;;;;;;7.87;7.27;;;16.00;99.90;;;;;;5112527;28;20995;-70
2022/06/21 06:30:21;;;;;;;7.80;7.10;;;16.10;99.90;;;;;;5117949;27;20421;-70
2022/06/21 06:33:07;;;;;;;8.67;7.80;;;16.20;99.90;;;;;;5112095;27;20822;-70
2022/06/21 06:35:33;;;;;;;8.23;7.63;;;16.20;99.90;;;;;;5106024;28;20785;-69
2022/06/21 06:37:58;;;;;;;8.40;7.57;;;16.20;99.90;;;;;;5101878;27;20422;-69
2022/06/21 06:40:33;;;;;;;6.80;6.20;;;16.30;99.90;;;;;;5113610;27;20524;-72
2022/06/21 06:43:19;;;;;;;9.20;8.30;;;16.40;99.90;;;;;;5103870;28;20217;-70
2022/06/21 06:45:45;;;;;;;7.97;7.27;;;16.50;99.90;;;;;;5112121;28;20392;-70
2022/06/21 06:48:24;;;;;;;8.17;6.43;;;16.60;99.80;;;;;;5112990;28;20460;-70
2022/06/21 06:50:55;;;;;;;6.90;6.20;;;16.70;99.80;;;;;;5108471;28;20430;-71
2022/06/21 06:53:40;;;;;;;7.00;6.40;;;16.70;99.60;;;;;;5110142;28;20465;-71
2022/06/21 06:56:24;;;;;;;6.50;6.00;;;16.80;99.90;;;;;;5112342;28;20912;-71
2022/06/21 06:59:05;;;;;;;7.07;5.73;;;16.90;99.10;;;;;;5112184;28;20437;-71
2022/06/21 07:02:15;;;;;;;9.80;9.10;;;17.00;98.50;;;;;;5111666;28;20402;-71
2022/06/21 07:04:45;;;;;;;5.37;4.90;;;17.20;99.90;;;;;;5072731;27;20440;-71
2022/06/21 07:07:26;;;;;;;8.93;8.00;;;17.30;99.90;;;;;;5135946;27;20418;-71
2022/06/21 07:09:56;;;;;;;9.13;5.93;;;17.50;99.90;;;;;;5095475;28;20793;-72
2022/06/21 07:12:28;;;;;;;5.63;5.13;;;17.60;99.90;;;;;;5121362;27;20459;-71
2022/06/21 07:14:56;;;;;;;7.60;7.00;;;17.80;99.90;;;;;;5101582;27;20413;-71
2022/06/21 07:17:50;;;;;;;6.43;5.13;;;17.90;99.10;;;;;;5135826;27;20781;-71
2022/06/21 07:20:35;;;;;;;6.37;4.97;;;18.00;98.60;;;;;;5124454;27;20497;-71
2022/06/21 07:23:01;;;;;;;6.33;5.63;;;17.90;95.50;;;;;;5111835;28;20424;-71
2022/06/21 07:25:40;;;;;;;7.90;7.00;;;18.10;95.70;;;;;;5116451;27;20408;-71
2022/06/21 07:28:24;;;;;;;5.63;5.13;;;18.20;96.30;;;;;;5116474;28;20476;-70
2022/06/21 07:30:52;;;;;;;6.43;5.27;;;18.30;95.20;;;;;;5116583;28;20389;-70
2022/06/21 07:33:32;;;;;;;5.20;4.80;;;18.40;95.20;;;;;;5130717;27;20475;-70
2022/06/21 07:36:10;;;;;;;7.70;6.97;;;18.50;94.00;;;;;;5128413;27;20421;-70
2022/06/21 07:38:51;;;;;;;5.37;5.03;;;18.50;94.10;;;;;;5115853;27;20426;-70
2022/06/21 07:41:30;;;;;;;6.27;5.77;;;18.70;93.00;;;;;;5106416;28;20888;-70
2022/06/21 07:44:04;;;;;;;6.27;5.67;;;18.80;93.60;;;;;;5123783;27;20420;-70
2022/06/21 07:46:48;;;;;;;6.57;4.93;;;19.00;93.70;;;;;;5122518;27;20424;-70
2022/06/21 07:49:26;;;;;;;5.10;4.70;;;19.20;94.90;;;;;;5121586;27;20858;-70
2022/06/21 07:52:00;;;;;;;6.80;5.80;;;19.30;93.60;;;;;;5120389;27;20980;-70
2022/06/21 07:54:30;;;;;;;5.17;4.87;;;19.40;92.40;;;;;;5124845;27;20448;-71
2022/06/21 07:57:11;;;;;;;5.50;5.10;;;19.50;92.80;;;;;;5133443;27;20503;-70
2022/06/21 07:59:43;;;;;;;6.50;5.40;;;19.70;92.70;;;;;;5130707;27;20504;-70
2022/06/21 08:09:13;;;;;;;5.97;5.50;;;20.00;94.20;;;;;;5114125;27;20445;-70
2022/06/21 08:11:42;;;;;;;6.13;4.90;;;20.20;92.90;;;;;;5125315;27;20525;-70
2022/06/21 08:14:09;;;;;;;5.57;5.00;;;20.30;91.60;;;;;;5129419;27;20461;-70
2022/06/21 08:16:53;;;;;;;5.53;5.03;;;20.50;92.60;;;;;;5125275;27;20441;-70
2022/06/21 08:19:31;;;;;;;4.90;4.50;;;20.60;91.30;;;;;;5110272;27;20937;-70
2022/06/21 08:22:03;;;;;;;5.10;4.70;;;20.60;90.20;;;;;;5099164;28;20964;-70
2022/06/21 08:25:08;;;;;;;6.80;6.30;;;20.60;88.10;;;;;;5114210;28;20544;-71
2022/06/21 08:28:07;;;;;;;6.37;5.97;;;20.60;88.90;;;;;;5112847;28;21108;-70
2022/06/21 08:30:50;;;;;;;7.50;6.90;;;20.70;89.80;;;;;;5090357;28;20846;-70
2022/06/21 08:33:33;;;;;;;6.53;4.67;;;20.80;91.00;;;;;;5115522;28;20485;-70
2022/06/21 08:36:10;;;;;;;8.23;7.60;;;20.90;92.60;;;;;;5115641;28;20402;-70
2022/06/21 08:38:42;;;;;;;5.30;4.80;;;21.00;92.00;;;;;;5114932;28;20394;-70
2022/06/21 08:44:28;;;;;;;7.67;5.50;;;21.20;90.50;;;;;;5115380;28;20420;-70
2022/06/21 08:47:29;;;;;;;6.37;5.17;;;21.30;90.70;;;;;;5115057;28;20410;-70
2022/06/21 08:50:32;;;;;;;6.80;6.30;;;21.40;91.20;;;;;;5114405;28;20972;-70
2022/06/21 08:53:16;;;;;;;5.10;4.40;;;21.50;91.10;;;;;;5115180;28;20447;-70
2022/06/21 08:56:11;;;;;;;6.10;5.60;;;21.50;90.00;;;;;;5114595;28;20470;-70
2022/06/21 08:59:10;;;;;;;5.00;4.60;;;21.60;88.80;;;;;;5081390;28;20454;-70
2022/06/21 09:01:49;;;;;;;6.93;6.43;;;21.70;88.60;;;;;;5114422;28;20481;-70
2022/06/21 09:04:39;;;;;;;5.83;4.93;;;21.80;91.10;;;;;;5115197;28;20797;-70
2022/06/21 09:07:17;;;;;;;7.80;5.90;;;21.90;91.00;;;;;;5115022;28;20406;-70
2022/06/21 09:10:07;;;;;;;5.47;5.07;;;22.10;90.30;;;;;;5114346;28;20485;-70
2022/06/21 09:12:51;;;;;;;6.40;5.90;;;22.30;91.20;;;;;;5114228;28;20449;-71
2022/06/21 09:15:32;;;;;;;5.97;4.90;;;22.40;86.50;;;;;;5114914;28;20402;-70
2022/06/21 09:18:00;;;;;;;5.50;5.00;;;22.60;86.00;;;;;;5113082;28;20536;-70
2022/06/21 09:20:39;;;;;;;6.03;4.00;;;22.80;88.40;;;;;;5114318;28;20463;-70
2022/06/21 09:23:14;;;;;;;5.40;4.30;;;22.80;86.00;;;;;;5114785;28;20401;-70
2022/06/21 09:26:07;;;;;;;4.20;4.00;;;22.90;86.20;;;;;;5114041;28;20455;-70
2022/06/21 09:28:43;;;;;;;5.33;4.80;;;23.00;84.50;;;;;;5112527;28;20433;-70
2022/06/21 09:31:36;;;;;;;4.53;4.23;;;23.10;86.30;;;;;;5114497;28;20413;-70
2022/06/21 09:34:08;;;;;;;4.60;4.20;;;23.20;83.80;;;;;;5103992;28;20433;-70
2022/06/21 09:36:53;;;;;;;7.67;6.60;;;23.20;82.60;;;;;;5112169;28;20521;-72
2022/06/21 09:39:45;;;;;;;5.97;5.47;;;23.20;82.20;;;;;;5114378;28;20409;-70
2022/06/21 09:42:42;;;;;;;6.77;6.27;;;23.20;80.30;;;;;;5114300;28;20408;-70
2022/06/21 09:45:22;;;;;;;4.40;4.10;;;23.30;82.10;;;;;;5061497;28;20414;-70
2022/06/21 09:48:00;;;;;;;4.67;4.37;;;23.00;74.20;;;;;;5113568;28;20428;-70
2022/06/21 09:50:40;;;;;;;4.33;4.03;;;23.00;82.00;;;;;;5114204;28;20457;-70
2022/06/21 09:53:32;;;;;;;4.70;4.40;;;23.10;77.30;;;;;;5112482;28;20924;-70
2022/06/21 09:56:04;;;;;;;5.40;5.00;;;23.10;77.90;;;;;;5113441;28;20412;-70
2022/06/21 09:58:38;;;;;;;4.53;4.10;;;23.20;80.50;;;;;;5114052;28;20405;-70
2022/06/21 10:01:22;;;;;;;4.03;3.73;;;22.70;75.30;;;;;;5112873;28;20401;-70
2022/06/21 10:03:51;;;;;;;5.23;4.73;;;22.70;77.00;;;;;;5110525;28;20425;-70
2022/06/21 10:06:44;;;;;;;5.70;5.30;;;22.80;79.20;;;;;;5113778;28;20865;-70
2022/06/21 10:09:40;;;;;;;6.47;4.70;;;22.80;79.40;;;;;;5113751;28;20397;-70
2022/06/21 10:12:31;;;;;;;4.60;4.30;;;22.80;79.50;;;;;;5113699;28;20442;-70
2022/06/21 10:15:02;;;;;;;3.60;3.40;;;22.80;78.00;;;;;;5113328;28;20670;-70
2022/06/21 10:17:57;;;;;;;6.37;5.97;;;22.80;82.80;;;;;;5113402;28;20887;-70
2022/06/21 10:20:41;;;;;;;5.13;4.83;;;22.90;83.60;;;;;;5113294;28;20461;-70
2022/06/21 10:23:26;;;;;;;4.37;4.07;;;23.20;82.30;;;;;;5113439;28;20425;-70
2022/06/21 10:26:16;;;;;;;6.00;5.60;;;23.30;80.10;;;;;;5112564;28;20916;-70
2022/06/21 10:29:19;;;;;;;4.13;3.83;;;23.20;77.10;;;;;;5111636;28;20398;-70
2022/06/21 10:31:52;;;;;;;6.23;3.90;;;23.20;79.50;;;;;;5093046;28;20476;-70
2022/06/21 10:34:30;;;;;;;3.73;3.40;;;23.20;79.50;;;;;;5111271;28;20455;-70
2022/06/21 10:37:20;;;;;;;4.23;3.87;;;23.30;78.50;;;;;;5112711;28;20462;-70
2022/06/21 10:39:57;;;;;;;3.90;3.60;;;23.30;80.40;;;;;;5111900;28;20398;-70
2022/06/21 10:42:47;;;;;;;5.10;4.70;;;23.40;79.00;;;;;;5113239;28;20442;-70
2022/06/21 10:45:33;;;;;;;4.20;3.90;;;23.50;77.40;;;;;;5113284;28;20445;-70
2022/06/21 10:48:31;;;;;;;4.30;4.10;;;23.70;77.70;;;;;;5112554;28;20468;-70
2022/06/21 10:51:27;;;;;;;6.07;4.70;;;24.00;83.30;;;;;;5111324;28;20453;-68
2022/06/21 10:54:23;;;;;;;5.57;5.13;;;24.30;79.90;;;;;;5112468;28;20434;-69
2022/06/21 10:57:19;;;;;;;4.40;4.20;;;24.60;77.00;;;;;;5112498;28;20406;-69
2022/06/21 11:03:01;;;;;;;4.90;4.40;;;24.70;72.10;;;;;;5110230;28;20941;-69
2022/06/21 11:05:45;;;;;;;5.07;4.67;;;24.80;77.20;;;;;;5113164;28;20410;-69
2022/06/21 11:08:49;;;;;;;7.00;6.60;;;25.00;79.70;;;;;;5113036;28;20505;-69
2022/06/21 11:11:39;;;;;;;4.53;4.23;;;25.20;74.40;;;;;;5110993;28;20484;-69
2022/06/21 11:14:14;;;;;;;6.00;5.70;;;25.20;73.20;;;;;;5113127;28;20484;-69
2022/06/21 11:16:43;;;;;;;4.70;4.30;;;25.30;71.50;;;;;;5112689;28;20397;-71
2022/06/21 11:19:33;;;;;;;4.57;4.30;;;25.40;75.00;;;;;;5113320;28;20893;-69
2022/06/21 11:22:34;;;;;;;4.70;4.40;;;25.60;75.90;;;;;;5111857;28;20405;-69
2022/06/21 11:25:09;;;;;;;4.50;4.13;;;25.70;72.10;;;;;;5112246;28;20487;-69
2022/06/21 11:28:09;;;;;;;5.17;4.77;;;25.80;72.30;;;;;;5112820;28;20472;-69
2022/06/21 11:30:56;;;;;;;4.13;3.90;;;25.90;70.00;;;;;;5080214;28;20413;-69
2022/06/21 11:33:30;;;;;;;4.67;4.37;;;25.80;64.40;;;;;;5111525;28;20803;-69
2022/06/21 11:36:11;;;;;;;5.17;4.77;;;25.60;66.10;;;;;;5110926;28;20429;-69
2022/06/21 11:38:49;;;;;;;4.13;3.83;;;25.60;67.10;;;;;;5112786;28;20481;-69
2022/06/21 11:42:18;;;;;;;4.70;4.30;;;25.40;63.80;;;;;;5111565;28;20762;-69
2022/06/21 11:44:33;;;;;;;5.17;4.77;;;25.10;66.50;;;;;;5108176;28;20504;-69
2022/06/21 11:47:10;;;;;;;4.23;4.03;;;24.90;65.80;;;;;;5112140;28;20397;-69
2022/06/21 11:49:59;;;;;;;4.53;4.13;;;24.90;71.40;;;;;;5112020;28;20412;-69
2022/06/21 11:53:12;;;;;;;6.10;5.80;;;25.00;73.60;;;;;;5115168;28;20481;-69
2022/06/21 11:55:44;;;;;;;4.90;4.60;;;25.10;68.00;;;;;;5116162;28;20803;-69
2022/06/21 11:58:31;;;;;;;5.10;4.70;;;25.20;72.20;;;;;;5116355;28;20405;-69
2022/06/21 12:01:22;;;;;;;4.53;4.07;;;25.30;74.50;;;;;;5115405;28;20813;-69
2022/06/21 12:04:32;;;;;;;4.23;3.83;;;25.30;73.80;;;;;;5113530;28;20433;-70
2022/06/21 12:07:12;;;;;;;4.03;3.73;;;25.20;70.00;;;;;;5052450;28;20519;-71
2022/06/21 12:09:42;;;;;;;4.70;4.07;;;25.10;69.70;;;;;;5108566;28;20460;-69
2022/06/21 12:12:31;;;;;;;6.90;6.50;;;25.00;70.70;;;;;;5115696;28;20494;-69
2022/06/21 12:15:26;;;;;;;5.93;5.43;;;24.80;70.20;;;;;;5114286;28;20394;-69
2022/06/21 12:17:52;;;;;;;5.90;5.50;;;24.70;69.10;;;;;;5115508;28;20421;-69
2022/06/21 12:20:27;;;;;;;7.30;5.07;;;24.50;69.50;;;;;;5115526;28;20966;-69
2022/06/21 12:23:27;;;;;;;5.10;4.70;;;24.50;72.20;;;;;;5115416;28;20172;-69
2022/06/21 12:25:54;;;;;;;6.47;6.07;;;24.30;72.60;;;;;;5114873;28;20921;-69
2022/06/21 12:28:25;;;;;;;6.43;6.10;;;24.30;75.80;;;;;;5115725;28;20854;-69
2022/06/21 12:30:52;;;;;;;4.87;4.67;;;24.20;77.10;;;;;;5115194;28;20764;-69
2022/06/21 12:33:22;;;;;;;6.70;6.30;;;24.10;76.00;;;;;;5113149;28;20517;-69
2022/06/21 12:35:56;;;;;;;5.57;4.20;;;24.10;76.60;;;;;;5114159;28;20430;-70
2022/06/21 12:38:36;;;;;;;4.60;4.20;;;24.10;76.80;;;;;;5115563;28;20484;-69
2022/06/21 12:41:21;;;;;;;6.27;5.87;;;24.20;77.70;;;;;;5114693;28;20458;-69
2022/06/21 12:44:20;;;;;;;6.00;5.67;;;24.30;80.90;;;;;;5114834;28;20425;-70
2022/06/21 12:46:59;;;;;;;4.70;4.30;;;24.50;82.20;;;;;;5114817;28;20444;-69
2022/06/21 12:49:28;;;;;;;6.70;6.20;;;24.60;79.90;;;;;;5114996;28;20417;-69
2022/06/21 12:51:59;;;;;;;4.03;3.83;;;24.70;78.20;;;;;;5114621;28;20501;-69
2022/06/21 12:54:30;;;;;;;3.43;3.23;;;24.90;78.80;;;;;;5115296;28;20414;-69
2022/06/21 12:57:08;;;;;;;4.50;4.10;;;24.90;76.50;;;;;;5114543;28;20425;-69
2022/06/21 12:59:56;;;;;;;5.33;4.83;;;24.90;75.50;;;;;;5114825;28;20393;-69
2022/06/21 13:03:01;;;;;;;5.07;4.67;;;24.90;74.50;;;;;;5112021;28;20843;-69
2022/06/21 13:06:04;;;;;;;4.17;3.87;;;24.90;77.10;;;;;;5103589;28;20417;-69
2022/06/21 13:09:05;;;;;;;6.13;5.73;;;24.90;76.40;;;;;;5115148;28;20401;-69
2022/06/21 13:11:42;;;;;;;6.30;5.90;;;24.80;75.90;;;;;;5113708;28;20462;-69
2022/06/21 13:14:28;;;;;;;4.63;4.33;;;24.70;76.60;;;;;;5113109;28;20406;-70
2022/06/21 13:17:21;;;;;;;4.97;4.67;;;24.70;76.00;;;;;;5114137;28;20413;-69
2022/06/21 13:20:15;;;;;;;5.47;5.20;;;24.60;75.90;;;;;;5118011;27;20455;-69
2022/06/21 13:22:54;;;;;;;5.00;4.70;;;24.50;78.00;;;;;;5115372;27;20433;-72
2022/06/21 13:25:39;;;;;;;5.40;4.73;;;24.40;78.40;;;;;;5135218;27;20405;-70
2022/06/21 13:28:14;;;;;;;4.80;4.40;;;24.60;78.60;;;;;;5134510;27;20413;-70
2022/06/21 13:30:54;;;;;;;232.03;206.93;;;24.90;78.60;;;;;;5121194;27;20463;-71
2022/06/21 13:33:48;;;;;;;40.03;36.03;;;25.10;77.60;;;;;;5114098;28;20495;-70
2022/06/21 13:36:20;;;;;;;29.17;24.37;;;25.30;77.50;;;;;;5113793;28;20420;-70
2022/06/21 13:38:46;;;;;;;8.93;8.17;;;25.40;73.00;;;;;;5136303;27;20452;-71
2022/06/21 13:44:25;;;;;;;5.00;4.60;;;25.30;72.00;;;;;;5103946;27;20179;-70
2022/06/21 13:47:00;;;;;;;93.23;73.67;;;25.30;73.10;;;;;;5119232;27;20425;-73
2022/06/21 13:49:39;;;;;;;33.07;29.33;;;25.10;73.30;;;;;;5114969;27;20421;-71
2022/06/21 13:52:14;;;;;;;11.77;10.63;;;25.10;73.40;;;;;;5133276;27;20458;-71
2022/06/21 13:55:05;;;;;;;7.90;7.20;;;25.10;74.00;;;;;;5122570;27;20442;-70
2022/06/21 13:57:53;;;;;;;5.73;5.20;;;25.10;73.30;;;;;;5112174;28;20436;-70
2022/06/21 14:00:32;;;;;;;7.63;7.23;;;25.30;73.00;;;;;;5128957;27;20429;-70
2022/06/21 14:03:21;;;;;;;7.60;6.87;;;25.30;72.20;;;;;;5133339;27;20393;-71
2022/06/21 14:06:14;;;;;;;7.03;6.47;;;25.30;71.70;;;;;;5131170;27;20420;-71